createdAt,value
2018-03-24T00:02:18.706Z,13.83
2018-03-24T00:04:48.055Z,12.03
2018-03-24T00:07:17.183Z,11.43
2018-03-24T00:09:45.525Z,11.10
2018-03-24T00:12:14.755Z,11.73
2018-03-24T00:14:43.178Z,12.60
2018-03-24T00:17:12.479Z,12.00
2018-03-24T00:19:40.907Z,13.27
2018-03-24T00:22:10.174Z,12.10
2018-03-24T00:24:38.675Z,12.80
2018-03-24T00:27:07.898Z,12.00
2018-03-24T00:29:36.291Z,12.00
2018-03-24T00:32:04.696Z,12.97
2018-03-24T00:34:33.024Z,12.90
2018-03-24T00:37:02.103Z,12.67
2018-03-24T00:39:30.408Z,11.53
2018-03-24T00:41:59.477Z,11.87
2018-03-24T00:44:27.827Z,11.77
2018-03-24T00:46:56.941Z,11.53
2018-03-24T00:49:26.108Z,11.07
2018-03-24T00:51:54.441Z,11.77
2018-03-24T00:54:23.510Z,11.90
2018-03-24T00:56:51.831Z,11.23
2018-03-24T00:59:20.196Z,10.67
2018-03-24T01:01:48.750Z,11.23
2018-03-24T01:04:17.844Z,9.93
2018-03-24T01:06:46.223Z,10.47
2018-03-24T01:09:15.496Z,10.10
2018-03-24T01:11:43.911Z,10.77
2018-03-24T01:14:13.032Z,11.03
2018-03-24T01:16:42.529Z,11.50
2018-03-24T01:19:10.922Z,11.10
2018-03-24T01:21:39.473Z,12.47
2018-03-24T01:24:08.736Z,11.53
2018-03-24T01:26:38.517Z,11.10
2018-03-24T01:29:08.751Z,11.63
2018-03-24T01:31:38.037Z,11.53
2018-03-24T01:34:06.382Z,11.67
2018-03-24T01:36:34.711Z,11.77
2018-03-24T01:39:03.903Z,11.87
2018-03-24T01:41:32.218Z,12.40
2018-03-24T01:44:01.316Z,11.57
2018-03-24T01:46:30.434Z,11.00
2018-03-24T01:48:59.521Z,10.60
2018-03-24T01:51:28.067Z,11.47
2018-03-24T01:53:56.411Z,12.77
2018-03-24T01:56:24.721Z,9.87
2018-03-24T01:58:53.790Z,10.53
2018-03-24T02:01:22.111Z,10.77
2018-03-24T02:03:51.177Z,11.30
2018-03-24T02:06:19.499Z,11.00
2018-03-24T02:08:47.932Z,10.57
2018-03-24T02:11:17.157Z,9.33
2018-03-24T02:13:45.476Z,10.73
2018-03-24T02:16:13.867Z,10.00
2018-03-24T02:18:43.130Z,10.20
2018-03-24T02:21:12.472Z,10.70
2018-03-24T02:23:40.879Z,10.80
2018-03-24T02:26:09.357Z,11.10
2018-03-24T02:28:37.885Z,9.80
2018-03-24T02:31:07.636Z,9.33
2018-03-24T02:33:36.028Z,10.20
2018-03-24T02:36:05.222Z,11.70
2018-03-24T02:38:33.580Z,12.10
2018-03-24T02:41:01.915Z,11.40
2018-03-24T02:43:30.989Z,11.53
2018-03-24T02:45:59.295Z,12.87
2018-03-24T02:48:27.674Z,11.00
2018-03-24T02:50:56.031Z,12.47
2018-03-24T02:53:24.346Z,11.90
2018-03-24T02:55:52.663Z,12.03
2018-03-24T02:58:20.972Z,13.50
2018-03-24T03:00:50.092Z,14.63
2018-03-24T03:03:18.412Z,14.80
2018-03-24T03:05:46.809Z,15.07
2018-03-24T03:08:15.176Z,13.67
2018-03-24T03:10:43.546Z,16.00
2018-03-24T03:13:12.728Z,16.90
2018-03-24T03:15:41.191Z,18.10
2018-03-24T03:18:09.790Z,17.73
2018-03-24T03:20:38.962Z,15.63
2018-03-24T03:23:07.475Z,25.00
2018-03-24T03:25:35.890Z,17.70
2018-03-24T03:28:04.995Z,16.67
2018-03-24T03:30:34.743Z,16.03
2018-03-24T03:33:03.144Z,17.37
2018-03-24T03:35:31.450Z,17.90
2018-03-24T03:38:00.631Z,16.77
2018-03-24T03:40:29.030Z,18.00
2018-03-24T03:42:57.339Z,18.07
2018-03-24T03:45:25.711Z,17.40
2018-03-24T03:47:54.028Z,17.13
2018-03-24T03:50:23.099Z,21.40
2018-03-24T03:52:51.407Z,21.10
2018-03-24T03:55:19.710Z,21.80
2018-03-24T03:57:48.051Z,20.37
2018-03-24T04:03:17.312Z,21.27
2018-03-24T04:05:45.639Z,23.77
2018-03-24T04:08:14.799Z,23.87
2018-03-24T04:10:43.187Z,30.17
2018-03-24T04:13:11.549Z,25.87
2018-03-24T04:15:40.836Z,28.17
2018-03-24T04:18:09.313Z,31.00
2018-03-24T04:20:37.776Z,40.80
2018-03-24T04:23:06.915Z,33.67
2018-03-24T04:25:35.280Z,30.73
2018-03-24T04:28:04.383Z,28.30
2018-03-24T04:30:32.847Z,27.50
2018-03-24T04:33:01.940Z,24.27
2018-03-24T04:35:30.282Z,27.23
2018-03-24T04:37:59.355Z,23.10
2018-03-24T04:40:28.428Z,23.00
2018-03-24T04:42:56.743Z,17.47
2018-03-24T04:45:25.035Z,16.43
2018-03-24T04:47:53.336Z,15.90
2018-03-24T04:50:22.411Z,16.10
2018-03-24T04:52:50.780Z,15.40
2018-03-24T04:55:19.108Z,13.90
2018-03-24T04:57:47.466Z,17.13
2018-03-24T05:00:15.831Z,19.80
2018-03-24T05:02:44.187Z,19.50
2018-03-24T05:05:12.690Z,18.97
2018-03-24T05:07:41.072Z,19.43
2018-03-24T05:10:10.316Z,21.00
2018-03-24T05:12:39.045Z,21.17
2018-03-24T05:15:08.354Z,23.33
2018-03-24T05:17:36.706Z,26.60
2018-03-24T05:20:05.099Z,23.23
2018-03-24T05:22:35.071Z,22.33
2018-03-24T05:25:03.747Z,21.13
2018-03-24T05:27:32.048Z,24.07
2018-03-24T05:30:01.122Z,21.53
2018-03-24T05:32:30.191Z,22.80
2018-03-24T05:34:58.710Z,21.30
2018-03-24T05:37:27.082Z,20.93
2018-03-24T05:39:55.397Z,23.50
2018-03-24T05:42:23.696Z,21.73
2018-03-24T05:44:52.808Z,19.90
2018-03-24T05:47:21.896Z,20.73
2018-03-24T05:49:50.351Z,18.77
2018-03-24T05:52:18.685Z,17.20
2018-03-24T05:54:47.000Z,18.20
2018-03-24T05:57:16.319Z,17.10
2018-03-24T05:59:44.688Z,20.50
2018-03-24T06:02:13.353Z,20.60
2018-03-24T06:04:41.787Z,18.80
2018-03-24T06:07:11.061Z,19.30
2018-03-24T06:09:39.448Z,20.37
2018-03-24T06:12:08.702Z,20.43
2018-03-24T06:14:38.024Z,21.63
2018-03-24T06:17:06.401Z,22.10
2018-03-24T06:19:34.799Z,20.30
2018-03-24T06:22:03.898Z,22.80
2018-03-24T06:24:32.216Z,20.63
2018-03-24T06:27:01.894Z,23.30
2018-03-24T06:29:30.785Z,24.37
2018-03-24T06:32:00.482Z,22.00
2018-03-24T06:34:30.027Z,22.60
2018-03-24T06:39:53.487Z,19.50
2018-03-24T06:42:21.862Z,22.77
2018-03-24T06:44:50.391Z,21.50
2018-03-24T06:47:18.667Z,20.70
2018-03-24T06:49:47.746Z,22.47
2018-03-24T06:52:16.047Z,31.98
2018-03-24T06:54:44.453Z,24.27
2018-03-24T06:57:13.168Z,23.37
2018-03-24T06:59:41.702Z,25.40
2018-03-24T07:02:10.566Z,25.67
2018-03-24T07:04:39.860Z,25.07
2018-03-24T07:07:08.867Z,22.70
2018-03-24T07:09:40.625Z,21.83
2018-03-24T07:12:09.636Z,20.93
2018-03-24T07:14:38.794Z,20.20
2018-03-24T07:17:07.847Z,21.20
2018-03-24T07:19:36.847Z,21.43
2018-03-24T07:22:06.034Z,18.03
2018-03-24T07:24:34.767Z,18.83
2018-03-24T07:27:03.084Z,19.10
2018-03-24T07:29:32.163Z,18.17
2018-03-24T07:32:00.468Z,17.07
2018-03-24T07:34:29.557Z,21.00
2018-03-24T07:36:57.871Z,22.13
2018-03-24T07:39:27.019Z,19.07
2018-03-24T07:41:55.323Z,19.07
2018-03-24T07:44:23.640Z,21.27
2018-03-24T07:46:51.933Z,18.30
2018-03-24T07:49:20.239Z,18.73
2018-03-24T07:51:48.659Z,15.80
2018-03-24T07:56:51.560Z,15.30
2018-03-24T07:59:20.702Z,15.50
2018-03-24T08:01:49.039Z,16.00
2018-03-24T08:04:17.409Z,14.07
2018-03-24T08:06:46.472Z,13.87
2018-03-24T08:09:15.606Z,13.40
2018-03-24T08:11:44.128Z,14.53
2018-03-24T08:14:12.468Z,12.93
2018-03-24T08:16:40.807Z,12.20
2018-03-24T08:19:10.198Z,13.57
2018-03-24T08:21:38.567Z,12.90
2018-03-24T08:24:07.040Z,14.57
2018-03-24T08:26:36.173Z,14.73
2018-03-24T08:29:05.424Z,16.03
2018-03-24T08:31:33.768Z,14.13
2018-03-24T08:34:02.839Z,15.03
2018-03-24T08:36:31.167Z,15.30
2018-03-24T08:39:00.275Z,14.07
2018-03-24T08:41:29.451Z,14.13
2018-03-24T08:43:57.867Z,16.48
2018-03-24T08:46:26.167Z,16.47
2018-03-24T08:48:55.286Z,15.90
2018-03-24T08:51:23.737Z,16.83
2018-03-24T08:53:53.019Z,14.80
2018-03-24T08:56:21.338Z,14.63
2018-03-24T08:58:49.702Z,14.80
2018-03-24T09:01:18.134Z,16.13
2018-03-24T09:03:47.273Z,14.10
2018-03-24T09:06:15.850Z,14.73
2018-03-24T09:08:44.226Z,16.40
2018-03-24T09:11:12.764Z,14.20
2018-03-24T09:13:41.282Z,14.90
2018-03-24T09:16:09.738Z,14.57
2018-03-24T09:18:38.994Z,13.33
2018-03-24T09:21:07.407Z,13.50
2018-03-24T09:23:35.744Z,14.93
2018-03-24T09:26:04.190Z,14.20
2018-03-24T09:28:32.496Z,14.10
2018-03-24T09:31:01.178Z,15.43
2018-03-24T09:33:29.493Z,14.43
2018-03-24T09:35:57.813Z,14.90
2018-03-24T09:38:26.899Z,16.90
2018-03-24T09:40:55.200Z,15.33
2018-03-24T09:43:24.350Z,15.37
2018-03-24T09:45:52.779Z,16.00
2018-03-24T09:48:21.099Z,14.27
2018-03-24T09:50:51.527Z,13.73
2018-03-24T09:53:20.406Z,14.33
2018-03-24T09:55:48.940Z,15.13
2018-03-24T09:58:18.027Z,17.87
2018-03-24T10:00:46.409Z,15.47
2018-03-24T10:03:14.769Z,14.67
2018-03-24T10:05:43.129Z,13.80
2018-03-24T10:08:11.987Z,14.43
2018-03-24T10:10:40.528Z,14.43
2018-03-24T10:13:09.787Z,14.67
2018-03-24T10:15:38.642Z,14.83
2018-03-24T10:18:07.159Z,14.63
2018-03-24T10:23:49.797Z,15.00
2018-03-24T10:26:18.302Z,14.83
2018-03-24T10:28:46.703Z,12.43
2018-03-24T10:31:15.127Z,12.07
2018-03-24T10:33:49.227Z,12.20
2018-03-24T10:36:17.580Z,14.10
2018-03-24T10:38:46.811Z,12.53
2018-03-24T10:41:15.262Z,13.03
2018-03-24T10:43:43.756Z,12.20
2018-03-24T10:46:13.617Z,12.50
2018-03-24T10:48:42.869Z,13.53
2018-03-24T10:51:11.500Z,12.03
2018-03-24T10:53:39.968Z,12.23
2018-03-24T10:56:08.357Z,12.80
2018-03-24T10:58:36.781Z,13.03
2018-03-24T11:01:10.833Z,12.10
2018-03-24T11:03:39.207Z,13.88
2018-03-24T11:06:08.411Z,12.57
2018-03-24T11:08:36.810Z,12.00
2018-03-24T11:11:05.898Z,12.77
2018-03-24T11:13:34.354Z,12.83
2018-03-24T11:16:02.664Z,13.87
2018-03-24T11:18:30.981Z,12.83
2018-03-24T11:20:59.287Z,14.00
2018-03-24T11:23:28.371Z,14.93
2018-03-24T11:25:56.743Z,13.60
2018-03-24T11:28:25.066Z,14.43
2018-03-24T11:30:53.380Z,14.00
2018-03-24T11:33:22.464Z,14.87
2018-03-24T11:35:50.804Z,14.70
2018-03-24T11:38:19.883Z,17.27
2018-03-24T11:40:48.960Z,16.37
2018-03-24T11:43:17.340Z,16.73
2018-03-24T11:45:45.710Z,17.17
2018-03-24T11:48:14.133Z,16.67
2018-03-24T11:50:42.510Z,15.30
2018-03-24T11:53:10.900Z,16.30
2018-03-24T11:55:39.363Z,13.87
2018-03-24T11:58:07.806Z,14.40
2018-03-24T12:00:36.975Z,14.87
2018-03-24T12:03:05.350Z,13.60
2018-03-24T12:05:33.700Z,14.90
2018-03-24T12:08:03.094Z,14.10
2018-03-24T12:10:31.526Z,14.33
2018-03-24T12:12:59.908Z,15.10
2018-03-24T12:15:29.017Z,13.87
2018-03-24T12:17:57.367Z,15.50
2018-03-24T12:20:25.715Z,17.77
2018-03-24T12:22:54.083Z,17.33
2018-03-24T12:25:22.461Z,15.20
2018-03-24T12:27:50.778Z,15.77
2018-03-24T12:30:19.175Z,15.97
2018-03-24T12:32:47.495Z,15.47
2018-03-24T12:35:15.931Z,14.70
2018-03-24T12:37:44.288Z,16.30
2018-03-24T12:40:12.620Z,15.60
2018-03-24T12:42:41.022Z,14.10
2018-03-24T12:45:10.348Z,15.40
2018-03-24T12:47:39.228Z,12.70
2018-03-24T12:50:07.998Z,14.47
2018-03-24T12:52:36.714Z,14.47
2018-03-24T12:55:05.179Z,15.05
2018-03-24T12:57:33.669Z,13.20
2018-03-24T13:00:02.372Z,13.83
2018-03-24T13:02:31.069Z,13.00
2018-03-24T13:04:59.405Z,12.60
2018-03-24T13:07:27.829Z,14.03
2018-03-24T13:09:56.937Z,13.23
2018-03-24T13:12:26.114Z,12.90
2018-03-24T13:14:54.432Z,12.57
2018-03-24T13:17:23.734Z,11.73
2018-03-24T13:19:52.047Z,12.03
2018-03-24T13:22:21.120Z,10.90
2018-03-24T13:24:49.424Z,10.90
2018-03-24T13:27:17.738Z,11.43
2018-03-24T13:29:46.915Z,12.68
2018-03-24T13:32:15.266Z,11.53
2018-03-24T13:34:44.640Z,11.10
2018-03-24T13:37:13.790Z,11.27
2018-03-24T13:39:42.922Z,11.13
2018-03-24T13:42:11.671Z,10.53
2018-03-24T13:44:40.998Z,11.50
2018-03-24T13:47:09.476Z,11.23
2018-03-24T13:49:38.084Z,11.77
2018-03-24T13:52:06.577Z,11.33
2018-03-24T13:54:35.739Z,10.50
2018-03-24T13:57:04.173Z,12.50
2018-03-24T13:59:33.271Z,12.03
2018-03-24T14:02:01.639Z,11.53
2018-03-24T14:04:30.017Z,11.23
2018-03-24T14:06:58.457Z,11.40
2018-03-24T14:09:27.581Z,13.25
2018-03-24T14:11:56.720Z,11.80
2018-03-24T14:14:25.146Z,12.73
2018-03-24T14:16:53.501Z,11.90
2018-03-24T14:19:21.926Z,12.10
2018-03-24T14:21:50.298Z,13.27
2018-03-24T14:24:18.632Z,12.37
2018-03-24T14:26:47.725Z,13.07
2018-03-24T14:29:16.196Z,12.40
2018-03-24T14:31:44.755Z,11.77
2018-03-24T14:34:13.147Z,13.10
2018-03-24T14:36:42.362Z,12.10
2018-03-24T14:39:10.972Z,12.60
2018-03-24T14:41:49.599Z,12.70
2018-03-24T14:44:18.196Z,13.35
2018-03-24T14:46:47.493Z,14.80
2018-03-24T14:49:16.160Z,12.27
2018-03-24T14:51:45.737Z,12.80
2018-03-24T14:54:14.189Z,12.80
2018-03-24T14:56:43.425Z,11.83
2018-03-24T14:59:11.906Z,12.70
2018-03-24T15:01:40.465Z,13.37
2018-03-24T15:04:09.386Z,12.17
2018-03-24T15:06:38.845Z,12.30
2018-03-24T15:09:07.376Z,12.88
2018-03-24T15:11:35.847Z,13.70
2018-03-24T15:14:04.236Z,12.67
2018-03-24T15:16:32.653Z,12.53
2018-03-24T15:19:00.999Z,11.90
2018-03-24T15:21:29.344Z,13.48
2018-03-24T15:23:57.653Z,12.70
2018-03-24T15:26:25.973Z,11.77
2018-03-24T15:32:12.317Z,11.63
2018-03-24T15:34:52.597Z,14.50
2018-03-24T15:37:20.936Z,13.40
2018-03-24T15:39:49.284Z,12.07
2018-03-24T15:42:17.636Z,12.00
2018-03-24T15:44:48.112Z,12.37
2018-03-24T15:47:16.591Z,13.80
2018-03-24T15:49:45.718Z,13.17
2018-03-24T15:52:15.010Z,14.93
2018-03-24T15:54:44.214Z,14.00
2018-03-24T15:57:13.418Z,14.07
2018-03-24T15:59:42.772Z,12.70
2018-03-24T16:02:11.367Z,13.77
2018-03-24T16:04:39.972Z,13.83
2018-03-24T16:07:09.506Z,12.50
2018-03-24T16:09:38.754Z,12.90
2018-03-24T16:12:07.558Z,14.98
2018-03-24T16:14:36.019Z,13.43
2018-03-24T16:17:04.403Z,14.43
2018-03-24T16:19:32.748Z,14.17
2018-03-24T16:22:01.860Z,13.70
2018-03-24T16:24:30.321Z,11.60
2018-03-24T16:26:58.686Z,14.33
2018-03-24T16:29:27.439Z,12.80
2018-03-24T16:31:55.778Z,14.37
2018-03-24T16:34:24.112Z,13.97
2018-03-24T16:36:53.596Z,14.00
2018-03-24T16:39:21.964Z,13.87
2018-03-24T16:41:51.066Z,13.37
2018-03-24T16:44:20.223Z,12.70
2018-03-24T16:46:48.708Z,12.73
2018-03-24T16:49:17.347Z,13.98
2018-03-24T16:51:45.888Z,14.80
2018-03-24T16:54:14.381Z,13.03
2018-03-24T16:56:43.427Z,12.50
2018-03-24T16:59:12.241Z,13.00
2018-03-24T17:01:41.679Z,13.87
2018-03-24T17:04:10.813Z,14.10
2018-03-24T17:06:40.213Z,13.10
2018-03-24T17:09:09.042Z,13.73
2018-03-24T17:11:37.668Z,12.67
2018-03-24T17:14:06.535Z,12.30
2018-03-24T17:16:34.925Z,12.70
2018-03-24T17:19:03.997Z,12.87
2018-03-24T17:21:33.097Z,12.20
2018-03-24T17:24:01.443Z,11.87
2018-03-24T17:26:29.791Z,14.77
2018-03-24T17:28:58.111Z,12.50
2018-03-24T17:31:26.502Z,13.43
2018-03-24T17:33:55.621Z,13.68
2018-03-24T17:36:23.927Z,12.50
2018-03-24T17:38:53.002Z,12.67
2018-03-24T17:41:22.084Z,11.03
2018-03-24T17:43:51.228Z,13.77
2018-03-24T17:46:20.324Z,12.30
2018-03-24T17:48:49.443Z,12.50
2018-03-24T17:51:18.505Z,10.60
2018-03-24T17:53:46.864Z,13.00
2018-03-24T17:56:15.558Z,12.30
2018-03-24T17:58:43.947Z,10.40
2018-03-24T18:01:12.342Z,11.13
2018-03-24T18:03:40.676Z,12.77
2018-03-24T18:06:08.992Z,11.90
2018-03-24T18:08:38.223Z,12.07
2018-03-24T18:11:07.377Z,10.20
2018-03-24T18:13:35.815Z,13.10
2018-03-24T18:16:05.009Z,27.93
2018-03-24T18:18:34.235Z,11.60
2018-03-24T18:21:03.622Z,11.70
2018-03-24T18:23:32.129Z,12.13
2018-03-24T18:26:01.465Z,12.20
2018-03-24T18:28:30.213Z,12.33
2018-03-24T18:30:59.538Z,12.40
2018-03-24T18:33:27.992Z,14.20
2018-03-24T18:35:56.413Z,12.60
2018-03-24T18:38:24.796Z,10.60
2018-03-24T18:40:53.934Z,11.60
2018-03-24T18:43:22.363Z,13.37
2018-03-24T18:45:50.695Z,11.07
2018-03-24T18:48:19.007Z,11.23
2018-03-24T18:50:47.355Z,14.17
2018-03-24T18:53:15.684Z,12.50
2018-03-24T18:55:44.155Z,14.00
2018-03-24T18:58:12.470Z,12.77
2018-03-24T19:00:41.575Z,10.70
2018-03-24T19:03:10.090Z,12.57
2018-03-24T19:05:39.252Z,11.53
2018-03-24T19:08:08.303Z,12.10
2018-03-24T19:10:37.603Z,14.40
2018-03-24T19:13:06.115Z,13.47
2018-03-24T19:15:34.519Z,12.70
2018-03-24T19:18:03.762Z,13.97
2018-03-24T19:20:32.292Z,14.20
2018-03-24T19:23:00.923Z,13.50
2018-03-24T19:25:30.847Z,14.27
2018-03-24T19:27:59.491Z,13.70
2018-03-24T19:30:27.962Z,12.40
2018-03-24T19:32:56.303Z,11.80
2018-03-24T19:35:24.625Z,12.33
2018-03-24T19:37:52.996Z,12.93
2018-03-24T19:40:21.300Z,10.63
2018-03-24T19:42:50.412Z,11.73
2018-03-24T19:45:18.740Z,12.13
2018-03-24T19:47:47.224Z,13.00
2018-03-24T19:50:15.655Z,13.27
2018-03-24T19:52:44.012Z,11.60
2018-03-24T19:55:12.364Z,10.97
2018-03-24T19:57:40.763Z,12.57
2018-03-24T20:00:09.215Z,11.93
2018-03-24T20:02:37.625Z,11.70
2018-03-24T20:05:06.117Z,13.23
2018-03-24T20:07:35.243Z,12.40
2018-03-24T20:10:03.910Z,14.33
2018-03-24T20:12:32.433Z,12.20
2018-03-24T20:15:01.692Z,12.03
2018-03-24T20:17:30.307Z,12.97
2018-03-24T20:19:58.652Z,13.33
2018-03-24T20:22:27.059Z,12.63
2018-03-24T20:24:56.144Z,12.60
2018-03-24T20:27:24.571Z,12.47
2018-03-24T20:29:52.932Z,15.20
2018-03-24T20:32:22.024Z,13.97
2018-03-24T20:34:50.350Z,13.47
2018-03-24T20:37:19.462Z,12.77
2018-03-24T20:39:47.824Z,11.50
2018-03-24T20:42:16.222Z,12.13
2018-03-24T20:44:44.537Z,13.70
2018-03-24T20:47:13.667Z,14.07
2018-03-24T20:49:42.011Z,12.93
2018-03-24T20:52:10.500Z,14.93
2018-03-24T20:54:38.855Z,14.27
2018-03-24T20:57:07.262Z,12.43
2018-03-24T20:59:35.639Z,12.60
2018-03-24T21:02:04.054Z,13.10
2018-03-24T21:04:32.496Z,12.60
2018-03-24T21:07:01.686Z,13.53
2018-03-24T21:09:30.870Z,14.10
2018-03-24T21:11:59.285Z,12.40
2018-03-24T21:14:28.496Z,13.70
2018-03-24T21:16:57.645Z,12.20
2018-03-24T21:19:25.962Z,12.50
2018-03-24T21:21:54.298Z,12.17
2018-03-24T21:24:23.398Z,13.57
2018-03-24T21:26:51.743Z,13.17
2018-03-24T21:29:20.082Z,13.10
2018-03-24T21:31:49.185Z,14.70
2018-03-24T21:34:17.563Z,14.73
2018-03-24T21:36:45.917Z,15.00
2018-03-24T21:39:14.232Z,13.37
2018-03-24T21:41:42.607Z,13.10
2018-03-24T21:44:10.968Z,13.50
2018-03-24T21:46:40.130Z,13.13
2018-03-24T21:49:08.396Z,15.30
2018-03-24T21:51:36.821Z,15.77
2018-03-24T21:54:05.201Z,14.60
2018-03-24T21:56:35.783Z,13.17
2018-03-24T21:59:04.993Z,13.67
2018-03-24T22:01:34.192Z,14.10
2018-03-24T22:04:03.455Z,14.37
2018-03-24T22:06:31.908Z,13.67
2018-03-24T22:09:00.309Z,15.70
2018-03-24T22:11:28.736Z,13.00
2018-03-24T22:13:57.128Z,13.60
2018-03-24T22:16:25.666Z,16.27
2018-03-24T22:18:54.038Z,14.00
2018-03-24T22:21:22.465Z,12.23
2018-03-24T22:23:51.681Z,15.13
2018-03-24T22:26:20.856Z,14.97
2018-03-24T22:28:49.261Z,14.40
2018-03-24T22:31:17.587Z,12.97
2018-03-24T22:33:45.956Z,13.13
2018-03-24T22:36:14.300Z,12.70
2018-03-24T22:38:42.650Z,13.33
2018-03-24T22:41:11.818Z,11.57
2018-03-24T22:43:40.163Z,13.77
2018-03-24T22:46:09.331Z,14.93
2018-03-24T22:48:37.756Z,14.00
2018-03-24T22:51:06.964Z,13.80
2018-03-24T22:53:36.180Z,13.73
2018-03-24T22:56:05.361Z,13.73
2018-03-24T22:58:33.811Z,13.30
2018-03-24T23:01:02.239Z,13.70
2018-03-24T23:03:30.727Z,14.70
2018-03-24T23:05:59.971Z,13.33
2018-03-24T23:08:28.341Z,13.80
2018-03-24T23:10:56.747Z,12.90
2018-03-24T23:13:25.098Z,13.33
2018-03-24T23:15:53.512Z,14.33
2018-03-24T23:18:21.912Z,15.27
2018-03-24T23:20:50.266Z,14.23
2018-03-24T23:23:18.601Z,12.23
2018-03-24T23:25:47.698Z,13.50
2018-03-24T23:28:16.044Z,13.57
2018-03-24T23:30:44.747Z,13.30
2018-03-24T23:33:13.067Z,12.83
2018-03-24T23:35:41.407Z,12.53
2018-03-24T23:38:10.482Z,13.00
2018-03-24T23:40:38.849Z,13.50
2018-03-24T23:43:07.206Z,13.37
2018-03-24T23:45:35.562Z,13.30
2018-03-24T23:48:04.217Z,14.00
2018-03-24T23:50:32.586Z,13.40
2018-03-24T23:53:01.817Z,13.50
2018-03-24T23:55:30.338Z,12.70
2018-03-24T23:57:58.843Z,12.10
